createdAt,value
2023-05-01T00:00:31.233Z,34.30
2023-05-01T00:05:49.317Z,37.80
2023-05-01T00:10:51.953Z,32.60
2023-05-01T00:15:55.694Z,37.20
2023-05-01T00:20:58.378Z,31.90
2023-05-01T00:26:01.065Z,32.10
2023-05-01T00:31:03.883Z,23.20
2023-05-01T00:36:06.561Z,25.50
2023-05-01T00:41:09.101Z,23.30
2023-05-01T00:46:11.910Z,24.50
2023-05-01T00:51:15.196Z,21.00
2023-05-01T00:56:18.088Z,20.80
2023-05-01T01:01:21.653Z,19.30
2023-05-01T01:06:41.224Z,14.30
2023-05-01T01:12:05.699Z,13.00
2023-05-01T01:17:27.050Z,16.80
2023-05-01T01:22:30.505Z,15.20
2023-05-01T01:27:54.584Z,13.20
2023-05-01T01:33:17.440Z,14.30
2023-05-01T01:38:24.854Z,15.80
2023-05-01T01:43:30.385Z,11.70
2023-05-01T01:48:41.408Z,12.10
2023-05-01T01:53:48.373Z,13.30
2023-05-01T01:58:52.689Z,12.90
2023-05-01T02:03:55.511Z,15.30
2023-05-01T02:09:00.793Z,14.10
2023-05-01T02:14:05.473Z,13.30
2023-05-01T02:19:08.763Z,13.80
2023-05-01T02:24:13.627Z,16.90
2023-05-01T02:29:16.191Z,17.40
2023-05-01T02:34:18.732Z,17.70
2023-05-01T02:39:22.350Z,12.30
2023-05-01T02:44:27.789Z,14.00
2023-05-01T02:49:32.462Z,23.00
2023-05-01T02:54:35.426Z,18.90
2023-05-01T02:59:38.028Z,20.60
2023-05-01T03:04:40.777Z,23.00
2023-05-01T03:09:43.443Z,19.60
2023-05-01T03:14:46.237Z,29.70
2023-05-01T03:19:49.612Z,23.80
2023-05-01T03:24:52.122Z,23.80
2023-05-01T03:29:54.945Z,20.40
2023-05-01T03:34:57.882Z,19.20
2023-05-01T03:40:00.855Z,16.60
2023-05-01T03:45:03.560Z,18.30
2023-05-01T03:50:06.991Z,18.60
2023-05-01T03:55:09.764Z,18.90
2023-05-01T04:00:13.264Z,17.70
2023-05-01T04:05:16.372Z,13.90
2023-05-01T04:10:19.036Z,15.80
2023-05-01T04:15:22.851Z,15.30
2023-05-01T04:20:25.657Z,14.80
2023-05-01T04:25:28.203Z,17.30
2023-05-01T04:30:31.672Z,18.20
2023-05-01T04:35:35.090Z,14.30
2023-05-01T04:40:37.702Z,15.60
2023-05-01T04:45:40.318Z,19.10
2023-05-01T04:50:42.920Z,14.50
2023-05-01T04:55:45.546Z,12.10
2023-05-01T05:00:48.088Z,11.50
2023-05-01T05:05:50.868Z,11.30
2023-05-01T05:10:59.058Z,9.00
2023-05-01T05:16:01.763Z,12.80
2023-05-01T05:21:08.788Z,11.80
2023-05-01T05:26:11.400Z,8.00
2023-05-01T05:31:14.221Z,11.60
2023-05-01T05:36:16.803Z,10.30
2023-05-01T05:41:19.376Z,9.40
2023-05-01T05:46:22.011Z,11.90
2023-05-01T05:51:24.676Z,10.20
2023-05-01T05:56:27.243Z,9.00
2023-05-01T06:01:30.005Z,8.70
2023-05-01T06:06:34.198Z,8.30
2023-05-01T06:11:37.160Z,11.30
2023-05-01T06:16:40.016Z,6.80
2023-05-01T06:21:42.724Z,6.30
2023-05-01T06:26:45.341Z,10.10
2023-05-01T06:31:47.859Z,6.00
2023-05-01T06:36:54.840Z,9.30
2023-05-01T06:41:57.641Z,9.10
2023-05-01T06:47:01.668Z,9.00
2023-05-01T06:52:04.604Z,6.70
2023-05-01T06:57:07.163Z,8.80
2023-05-01T07:02:09.775Z,8.20
2023-05-01T07:07:12.501Z,11.30
2023-05-01T07:12:15.129Z,8.20
2023-05-01T07:17:17.673Z,7.20
2023-05-01T07:22:20.656Z,7.00
2023-05-01T07:27:23.192Z,7.80
2023-05-01T07:32:26.194Z,5.90
2023-05-01T07:37:29.020Z,8.10
2023-05-01T07:42:33.947Z,8.80
2023-05-01T07:47:36.747Z,7.60
2023-05-01T07:52:39.861Z,8.70
2023-05-01T07:57:42.416Z,6.30
2023-05-01T08:02:47.477Z,6.20
2023-05-01T08:07:50.818Z,6.30
2023-05-01T08:12:53.685Z,10.00
2023-05-01T08:17:56.608Z,9.80
2023-05-01T08:22:59.618Z,8.10
2023-05-01T08:28:02.198Z,7.20
2023-05-01T08:33:08.549Z,4.10
2023-05-01T08:38:12.434Z,8.80
2023-05-01T08:43:17.309Z,7.50
2023-05-01T08:48:23.137Z,8.10
2023-05-01T08:53:28.446Z,7.10
2023-05-01T08:58:35.403Z,5.70
2023-05-01T09:03:38.295Z,6.80
2023-05-01T09:08:40.974Z,7.50
2023-05-01T09:13:44.279Z,9.10
2023-05-01T09:18:47.749Z,7.10
2023-05-01T09:23:51.282Z,9.40
2023-05-01T09:28:58.123Z,6.80
2023-05-01T09:34:05.596Z,6.60
2023-05-01T09:39:08.425Z,5.10
2023-05-01T09:44:19.350Z,7.20
2023-05-01T09:49:48.168Z,6.50
2023-05-01T09:54:50.890Z,6.30
2023-05-01T10:00:08.548Z,6.60
2023-05-01T10:05:12.473Z,5.30
2023-05-01T10:10:16.709Z,4.80
2023-05-01T10:15:26.253Z,5.70
2023-05-01T10:20:31.359Z,5.70
2023-05-01T10:25:34.995Z,6.00
2023-05-01T10:30:38.666Z,7.80
2023-05-01T10:35:48.419Z,5.80
2023-05-01T10:40:51.723Z,6.10
2023-05-01T10:46:16.874Z,4.50
2023-05-01T10:51:27.265Z,5.80
2023-05-01T10:56:30.821Z,5.40
2023-05-01T11:01:37.841Z,5.60
2023-05-01T11:07:04.452Z,4.40
2023-05-01T11:12:08.799Z,6.80
2023-05-01T11:17:11.550Z,3.50
2023-05-01T11:22:14.190Z,5.40
2023-05-01T11:27:18.088Z,5.30
2023-05-01T11:32:27.322Z,4.20
2023-05-01T11:37:59.059Z,6.40
2023-05-01T11:43:07.120Z,7.50
2023-05-01T11:48:16.503Z,8.60
2023-05-01T11:53:19.149Z,7.70
2023-05-01T11:58:33.586Z,5.20
2023-05-01T12:03:44.708Z,3.70
2023-05-01T12:08:51.306Z,5.40
2023-05-01T12:13:55.079Z,5.80
2023-05-01T12:18:59.666Z,4.50
2023-05-01T12:24:10.751Z,4.40
2023-05-01T12:29:14.008Z,5.60
2023-05-01T12:34:17.128Z,3.70
2023-05-01T12:39:20.540Z,5.30
2023-05-01T12:44:23.044Z,6.30
2023-05-01T12:49:27.154Z,4.00
2023-05-01T12:54:31.994Z,4.60
2023-05-01T12:59:37.071Z,6.70
2023-05-01T13:04:40.537Z,4.40
2023-05-01T13:09:58.336Z,4.30
2023-05-01T13:15:01.306Z,4.10
2023-05-01T13:20:05.339Z,5.80
2023-05-01T13:25:22.539Z,6.70
2023-05-01T13:30:33.380Z,4.50
2023-05-01T13:35:40.167Z,4.90
2023-05-01T13:40:45.135Z,4.30
2023-05-01T13:45:47.820Z,5.20
2023-05-01T13:50:51.416Z,5.50
2023-05-01T13:55:55.548Z,4.70
2023-05-01T14:06:00.868Z,4.20
2023-05-01T14:11:08.800Z,7.10
2023-05-01T14:16:25.370Z,5.10
2023-05-01T14:21:28.400Z,5.10
2023-05-01T14:26:36.592Z,3.30
2023-05-01T14:31:40.041Z,6.70
2023-05-01T14:36:45.480Z,3.40
2023-05-01T14:41:48.210Z,6.40
2023-05-01T14:46:54.036Z,4.10
2023-05-01T14:51:57.185Z,3.40
2023-05-01T14:57:03.794Z,5.20
2023-05-01T15:02:06.412Z,3.60
2023-05-01T15:07:14.105Z,4.40
2023-05-01T15:12:19.024Z,3.60
2023-05-01T15:17:22.025Z,4.10
2023-05-01T15:22:25.918Z,4.00
2023-05-01T15:27:28.500Z,4.60
2023-05-01T15:32:31.946Z,4.40
2023-05-01T15:37:34.947Z,3.80
2023-05-01T15:47:40.460Z,6.70
2023-05-01T15:57:47.382Z,6.30
2023-05-01T16:02:52.656Z,6.20
2023-05-01T16:07:59.812Z,6.40
2023-05-01T16:13:04.996Z,3.10
2023-05-01T16:18:08.188Z,6.20
2023-05-01T16:23:16.646Z,6.80
2023-05-01T16:28:20.615Z,8.60
2023-05-01T16:33:26.098Z,4.30
2023-05-01T16:38:29.029Z,7.70
2023-05-01T16:43:33.926Z,6.30
2023-05-01T16:48:37.132Z,6.80
2023-05-01T16:53:39.671Z,7.70
2023-05-01T16:58:43.846Z,7.50
2023-05-01T17:03:46.409Z,4.70
2023-05-01T17:08:49.018Z,8.20
2023-05-01T17:13:52.477Z,11.60
2023-05-01T17:18:55.220Z,12.00
2023-05-01T17:23:57.832Z,17.00
2023-05-01T17:29:02.979Z,14.20
2023-05-01T17:34:05.622Z,11.60
2023-05-01T17:39:08.126Z,27.30
2023-05-01T17:44:10.646Z,26.10
2023-05-01T17:49:14.263Z,37.60
2023-05-01T17:54:17.582Z,22.00
2023-05-01T17:59:21.822Z,15.00
2023-05-01T18:04:24.723Z,17.20
2023-05-01T18:09:27.393Z,17.50
2023-05-01T18:14:30.175Z,17.30
2023-05-01T18:19:32.837Z,19.20
2023-05-01T18:24:35.428Z,16.60
2023-05-01T18:29:38.474Z,17.60
2023-05-01T18:34:42.165Z,17.80
2023-05-01T18:39:45.777Z,39.20
2023-05-01T18:44:48.348Z,44.50
2023-05-01T18:49:50.954Z,36.30
2023-05-01T18:54:53.608Z,36.70
2023-05-01T18:59:56.307Z,30.20
2023-05-01T19:04:58.935Z,27.00
2023-05-01T19:10:01.904Z,28.40
2023-05-01T19:15:05.018Z,21.30
2023-05-01T19:20:08.370Z,17.40
2023-05-01T19:25:10.977Z,15.20
2023-05-01T19:30:13.581Z,20.10
2023-05-01T19:35:16.280Z,20.20
2023-05-01T19:40:18.884Z,13.60
2023-05-01T19:45:21.592Z,15.20
2023-05-01T19:50:24.178Z,11.90
2023-05-01T19:55:26.688Z,15.10
2023-05-01T20:00:29.392Z,11.60
2023-05-01T20:05:33.270Z,11.80
2023-05-01T20:10:35.828Z,11.20
2023-05-01T20:15:39.660Z,8.50
2023-05-01T20:20:42.791Z,12.00
2023-05-01T20:25:47.979Z,10.50
2023-05-01T20:30:51.237Z,12.50
2023-05-01T20:35:54.396Z,12.00
2023-05-01T20:40:57.030Z,12.50
2023-05-01T20:45:59.596Z,9.50
2023-05-01T20:51:04.176Z,8.50
2023-05-01T20:56:06.988Z,11.10
2023-05-01T21:01:11.232Z,8.00
2023-05-01T21:06:16.009Z,10.60
2023-05-01T21:11:18.747Z,10.60
2023-05-01T21:16:21.335Z,10.80
2023-05-01T21:21:26.310Z,9.30
2023-05-01T21:26:29.364Z,8.40
2023-05-01T21:31:36.707Z,9.00
2023-05-01T21:36:45.047Z,9.10
2023-05-01T21:41:48.826Z,13.10
2023-05-01T21:46:55.852Z,10.80
2023-05-01T21:51:59.912Z,9.30
2023-05-01T21:57:05.401Z,8.20
2023-05-01T22:02:09.720Z,10.50
2023-05-01T22:07:12.826Z,6.60
2023-05-01T22:12:15.434Z,11.40
2023-05-01T22:17:23.955Z,8.80
2023-05-01T22:22:26.773Z,12.90
2023-05-01T22:27:29.754Z,10.30
2023-05-01T22:32:32.516Z,10.20
2023-05-01T22:37:36.373Z,11.30
2023-05-01T22:42:38.973Z,10.60
2023-05-01T22:47:41.577Z,12.10
2023-05-01T22:52:45.878Z,8.50
2023-05-01T22:57:49.241Z,10.70
2023-05-01T23:02:51.959Z,10.30
2023-05-01T23:07:54.660Z,10.10
2023-05-01T23:12:57.222Z,9.60
2023-05-01T23:17:59.775Z,9.70
2023-05-01T23:23:05.306Z,10.80
2023-05-01T23:28:09.354Z,12.50
2023-05-01T23:33:12.475Z,11.20
2023-05-01T23:38:15.067Z,8.70
2023-05-01T23:43:18.005Z,12.60
2023-05-01T23:48:20.895Z,9.20
2023-05-01T23:53:23.450Z,11.10
2023-05-01T23:58:26.099Z,8.70
